KDNN/DNN METAR and TAF weather

Enter ICAO airport designator
Station Type Date Time Source
KDNN METAR 2022/01/23 12:15 UTC NOAA

KDNN 231215Z AUTO 00000KT 10SM CLR M05/M06 A3018 RMK AO2


Station Type Date Time Source
KDNN Decoded METAR 2022/01/23 12:15 UTC NOAA

Dalton, Dalton Municipal Airport, GA, United States (KDNN) 34-43-18N 084-52-09W
Jan 23, 2022 - 07:15 AM EST / 2022.01.23 1215 UTC
Wind: Calm:0
Visibility: 10 mile(s):0
Sky conditions: clear
Temperature: 23 F (-5 C)
Dew Point: 21 F (-6 C)
Relative Humidity: 92%
Pressure (altimeter): 30.18 in. Hg (1022 hPa)
ob: KDNN 231215Z AUTO 00000KT 10SM CLR M05/M06 A3018 RMK AO2
cycle: 12

Station Type Date Time Source
KDNN TAF UTC NOAA

Error!

Example: see airport list